Nassau, Minnesota
Current Conditions -  °F | °C
As of 6:14 AM on Monday 22 Dec 2014 (Local Time) from KDXX Reporting Station
Moderate Rain Moderate Rain  
Wind Chill: 32°   Ceiling: Unl
Heat Index: 39°   Visibility: 5mi
Dew Point: 37°   Wind: 13mph
Humidity: 93%   Direction: 130°SE
Pressure: 29.5"   Gusts: NA
Location:  45.07°N, 96.44°W
Report Text: KDXX 221214Z AUTO 13011KT 5SM RA SCT046 04/03 A2950 RMK AO2
Loading
Personal Weather Stations






























Interactive Weather Map New forecast layout! Learn more

10-Day Weather Forecast

Advertisements
Track Severe Weather on mobile